sensor_id;sensor_type;location;lat;lon;timestamp;P1;durP1;ratioP1;P2;durP2;ratioP2
64291;SDS011;50628;51.008;13.658;2023-08-20T00:03:03;9.23;;;7.15;;
64291;SDS011;50628;51.008;13.658;2023-08-20T00:08:09;9.00;;;7.70;;
64291;SDS011;50628;51.008;13.658;2023-08-20T00:13:13;8.02;;;7.15;;
64291;SDS011;50628;51.008;13.658;2023-08-20T00:18:15;8.00;;;7.20;;
64291;SDS011;50628;51.008;13.658;2023-08-20T00:23:17;9.82;;;7.38;;
64291;SDS011;50628;51.008;13.658;2023-08-20T00:28:21;13.75;;;6.60;;
64291;SDS011;50628;51.008;13.658;2023-08-20T00:33:22;11.00;;;6.20;;
64291;SDS011;50628;51.008;13.658;2023-08-20T00:38:24;9.18;;;6.57;;
64291;SDS011;50628;51.008;13.658;2023-08-20T00:43:28;7.43;;;6.70;;
64291;SDS011;50628;51.008;13.658;2023-08-20T00:48:29;9.10;;;6.40;;
64291;SDS011;50628;51.008;13.658;2023-08-20T00:53:31;7.85;;;6.80;;
64291;SDS011;50628;51.008;13.658;2023-08-20T00:58:35;8.55;;;5.82;;
64291;SDS011;50628;51.008;13.658;2023-08-20T01:03:37;7.50;;;5.65;;
64291;SDS011;50628;51.008;13.658;2023-08-20T01:08:39;8.45;;;6.30;;
64291;SDS011;50628;51.008;13.658;2023-08-20T01:13:43;9.98;;;7.15;;
64291;SDS011;50628;51.008;13.658;2023-08-20T01:18:46;8.95;;;6.40;;
64291;SDS011;50628;51.008;13.658;2023-08-20T01:29:19;8.20;;;6.63;;
64291;SDS011;50628;51.008;13.658;2023-08-20T01:34:22;8.70;;;6.35;;
64291;SDS011;50628;51.008;13.658;2023-08-20T01:39:24;6.72;;;5.68;;
64291;SDS011;50628;51.008;13.658;2023-08-20T01:44:28;7.47;;;6.22;;
64291;SDS011;50628;51.008;13.658;2023-08-20T01:49:29;10.32;;;6.55;;
64291;SDS011;50628;51.008;13.658;2023-08-20T01:54:31;7.70;;;6.07;;
64291;SDS011;50628;51.008;13.658;2023-08-20T01:59:35;7.90;;;6.72;;
64291;SDS011;50628;51.008;13.658;2023-08-20T02:04:37;12.73;;;11.60;;
64291;SDS011;50628;51.008;13.658;2023-08-20T02:09:39;12.75;;;11.45;;
64291;SDS011;50628;51.008;13.658;2023-08-20T02:14:42;10.45;;;8.70;;
64291;SDS011;50628;51.008;13.658;2023-08-20T02:19:44;11.07;;;7.60;;
64291;SDS011;50628;51.008;13.658;2023-08-20T02:24:46;7.78;;;6.97;;
64291;SDS011;50628;51.008;13.658;2023-08-20T02:29:51;9.88;;;7.10;;
64291;SDS011;50628;51.008;13.658;2023-08-20T02:34:53;9.68;;;8.75;;
64291;SDS011;50628;51.008;13.658;2023-08-20T02:39:58;11.63;;;9.98;;
64291;SDS011;50628;51.008;13.658;2023-08-20T02:45:03;10.02;;;8.90;;
64291;SDS011;50628;51.008;13.658;2023-08-20T02:50:06;14.50;;;8.40;;
64291;SDS011;50628;51.008;13.658;2023-08-20T02:55:08;9.95;;;8.65;;
64291;SDS011;50628;51.008;13.658;2023-08-20T03:00:12;10.20;;;8.65;;
64291;SDS011;50628;51.008;13.658;2023-08-20T03:05:15;12.45;;;8.48;;
64291;SDS011;50628;51.008;13.658;2023-08-20T03:10:17;9.68;;;8.68;;
64291;SDS011;50628;51.008;13.658;2023-08-20T03:15:20;11.48;;;8.90;;
64291;SDS011;50628;51.008;13.658;2023-08-20T03:20:22;14.10;;;7.75;;
64291;SDS011;50628;51.008;13.658;2023-08-20T03:25:24;10.45;;;8.20;;
64291;SDS011;50628;51.008;13.658;2023-08-20T03:30:27;8.38;;;7.53;;
64291;SDS011;50628;51.008;13.658;2023-08-20T03:35:29;10.55;;;7.78;;
64291;SDS011;50628;51.008;13.658;2023-08-20T03:40:32;10.75;;;7.53;;
64291;SDS011;50628;51.008;13.658;2023-08-20T03:45:35;9.20;;;7.53;;
64291;SDS011;50628;51.008;13.658;2023-08-20T03:50:37;12.57;;;6.60;;
64291;SDS011;50628;51.008;13.658;2023-08-20T03:55:39;8.18;;;6.65;;
64291;SDS011;50628;51.008;13.658;2023-08-20T04:00:43;8.05;;;6.20;;
64291;SDS011;50628;51.008;13.658;2023-08-20T04:05:45;11.57;;;6.43;;
64291;SDS011;50628;51.008;13.658;2023-08-20T04:10:48;12.35;;;6.18;;
64291;SDS011;50628;51.008;13.658;2023-08-20T04:15:52;10.18;;;7.05;;
64291;SDS011;50628;51.008;13.658;2023-08-20T04:20:54;13.88;;;6.32;;
64291;SDS011;50628;51.008;13.658;2023-08-20T04:25:58;12.00;;;7.03;;
64291;SDS011;50628;51.008;13.658;2023-08-20T04:31:02;11.60;;;6.72;;
64291;SDS011;50628;51.008;13.658;2023-08-20T04:36:17;7.53;;;6.53;;
64291;SDS011;50628;51.008;13.658;2023-08-20T04:41:19;9.82;;;6.68;;
64291;SDS011;50628;51.008;13.658;2023-08-20T04:46:22;10.48;;;6.82;;
64291;SDS011;50628;51.008;13.658;2023-08-20T04:51:24;12.30;;;7.10;;
64291;SDS011;50628;51.008;13.658;2023-08-20T04:56:26;7.25;;;6.60;;
64291;SDS011;50628;51.008;13.658;2023-08-20T05:01:31;13.57;;;7.65;;
64291;SDS011;50628;51.008;13.658;2023-08-20T05:06:33;9.43;;;6.82;;
64291;SDS011;50628;51.008;13.658;2023-08-20T05:11:35;8.25;;;6.78;;
64291;SDS011;50628;51.008;13.658;2023-08-20T05:16:38;10.00;;;6.70;;
64291;SDS011;50628;51.008;13.658;2023-08-20T05:21:40;11.13;;;7.18;;
64291;SDS011;50628;51.008;13.658;2023-08-20T05:26:42;13.77;;;7.35;;
64291;SDS011;50628;51.008;13.658;2023-08-20T05:31:45;9.60;;;7.13;;
64291;SDS011;50628;51.008;13.658;2023-08-20T05:36:47;10.82;;;7.30;;
64291;SDS011;50628;51.008;13.658;2023-08-20T05:41:49;11.10;;;7.05;;
64291;SDS011;50628;51.008;13.658;2023-08-20T05:46:52;10.07;;;6.47;;
64291;SDS011;50628;51.008;13.658;2023-08-20T05:51:57;10.30;;;7.20;;
64291;SDS011;50628;51.008;13.658;2023-08-20T05:57:01;7.15;;;6.38;;
64291;SDS011;50628;51.008;13.658;2023-08-20T06:02:04;9.00;;;6.15;;
64291;SDS011;50628;51.008;13.658;2023-08-20T06:07:06;11.80;;;6.88;;
64291;SDS011;50628;51.008;13.658;2023-08-20T06:12:08;6.65;;;6.15;;
64291;SDS011;50628;51.008;13.658;2023-08-20T06:17:11;7.82;;;6.22;;
64291;SDS011;50628;51.008;13.658;2023-08-20T06:22:13;11.15;;;6.40;;
64291;SDS011;50628;51.008;13.658;2023-08-20T06:27:15;8.15;;;6.90;;
64291;SDS011;50628;51.008;13.658;2023-08-20T06:32:18;11.23;;;7.05;;
64291;SDS011;50628;51.008;13.658;2023-08-20T06:37:20;10.02;;;6.47;;
64291;SDS011;50628;51.008;13.658;2023-08-20T06:42:22;8.57;;;6.53;;
64291;SDS011;50628;51.008;13.658;2023-08-20T06:47:25;7.93;;;6.55;;
64291;SDS011;50628;51.008;13.658;2023-08-20T06:52:27;10.30;;;6.47;;
64291;SDS011;50628;51.008;13.658;2023-08-20T06:57:29;10.50;;;6.93;;
64291;SDS011;50628;51.008;13.658;2023-08-20T07:02:33;9.50;;;6.88;;
64291;SDS011;50628;51.008;13.658;2023-08-20T07:07:34;10.48;;;7.20;;
64291;SDS011;50628;51.008;13.658;2023-08-20T07:12:36;7.20;;;6.50;;
64291;SDS011;50628;51.008;13.658;2023-08-20T07:17:40;9.25;;;6.43;;
64291;SDS011;50628;51.008;13.658;2023-08-20T07:22:42;8.98;;;6.30;;
64291;SDS011;50628;51.008;13.658;2023-08-20T07:27:44;9.48;;;6.68;;
64291;SDS011;50628;51.008;13.658;2023-08-20T07:32:47;9.80;;;6.97;;
64291;SDS011;50628;51.008;13.658;2023-08-20T07:37:48;6.45;;;5.85;;
64291;SDS011;50628;51.008;13.658;2023-08-20T07:42:51;6.72;;;5.90;;
64291;SDS011;50628;51.008;13.658;2023-08-20T07:47:54;6.68;;;5.40;;
64291;SDS011;50628;51.008;13.658;2023-08-20T07:52:56;8.25;;;6.18;;
64291;SDS011;50628;51.008;13.658;2023-08-20T07:57:58;7.13;;;5.63;;
64291;SDS011;50628;51.008;13.658;2023-08-20T08:03:01;7.68;;;6.68;;
64291;SDS011;50628;51.008;13.658;2023-08-20T08:08:03;7.47;;;5.60;;
64291;SDS011;50628;51.008;13.658;2023-08-20T08:13:05;7.20;;;5.47;;
64291;SDS011;50628;51.008;13.658;2023-08-20T08:18:08;7.15;;;5.20;;
64291;SDS011;50628;51.008;13.658;2023-08-20T08:23:10;5.10;;;4.38;;
64291;SDS011;50628;51.008;13.658;2023-08-20T08:28:12;7.90;;;4.70;;
64291;SDS011;50628;51.008;13.658;2023-08-20T08:33:16;5.60;;;4.90;;
64291;SDS011;50628;51.008;13.658;2023-08-20T08:38:18;7.25;;;5.22;;
64291;SDS011;50628;51.008;13.658;2023-08-20T08:43:20;10.10;;;5.60;;
64291;SDS011;50628;51.008;13.658;2023-08-20T08:48:24;6.15;;;5.22;;
64291;SDS011;50628;51.008;13.658;2023-08-20T08:53:26;7.75;;;5.35;;
64291;SDS011;50628;51.008;13.658;2023-08-20T08:58:28;5.38;;;4.70;;
64291;SDS011;50628;51.008;13.658;2023-08-20T09:03:31;11.52;;;6.38;;
64291;SDS011;50628;51.008;13.658;2023-08-20T09:08:33;10.93;;;7.05;;
64291;SDS011;50628;51.008;13.658;2023-08-20T09:13:36;9.90;;;7.57;;
64291;SDS011;50628;51.008;13.658;2023-08-20T09:18:41;10.20;;;7.43;;
64291;SDS011;50628;51.008;13.658;2023-08-20T09:23:45;9.57;;;7.85;;
64291;SDS011;50628;51.008;13.658;2023-08-20T09:28:48;8.45;;;7.35;;
64291;SDS011;50628;51.008;13.658;2023-08-20T09:33:51;9.05;;;7.88;;
64291;SDS011;50628;51.008;13.658;2023-08-20T09:38:53;7.72;;;6.82;;
64291;SDS011;50628;51.008;13.658;2023-08-20T09:43:56;9.43;;;7.30;;
64291;SDS011;50628;51.008;13.658;2023-08-20T09:49:00;9.18;;;7.10;;
64291;SDS011;50628;51.008;13.658;2023-08-20T09:54:07;7.95;;;7.20;;
64291;SDS011;50628;51.008;13.658;2023-08-20T09:59:15;6.55;;;6.05;;
64291;SDS011;50628;51.008;13.658;2023-08-20T10:04:19;8.35;;;6.28;;
64291;SDS011;50628;51.008;13.658;2023-08-20T10:09:22;8.98;;;8.07;;
64291;SDS011;50628;51.008;13.658;2023-08-20T10:14:25;10.82;;;8.85;;
64291;SDS011;50628;51.008;13.658;2023-08-20T10:19:28;10.20;;;8.25;;
64291;SDS011;50628;51.008;13.658;2023-08-20T10:24:39;8.38;;;7.47;;
64291;SDS011;50628;51.008;13.658;2023-08-20T10:29:42;9.95;;;7.25;;
64291;SDS011;50628;51.008;13.658;2023-08-20T10:34:50;12.73;;;7.07;;
64291;SDS011;50628;51.008;13.658;2023-08-20T10:39:53;7.28;;;6.47;;
64291;SDS011;50628;51.008;13.658;2023-08-20T10:44:56;9.80;;;6.82;;
64291;SDS011;50628;51.008;13.658;2023-08-20T10:50:00;6.63;;;5.45;;
64291;SDS011;50628;51.008;13.658;2023-08-20T10:55:03;27.00;;;24.38;;
64291;SDS011;50628;51.008;13.658;2023-08-20T11:00:06;9.20;;;8.13;;
64291;SDS011;50628;51.008;13.658;2023-08-20T11:05:19;7.20;;;4.90;;
64291;SDS011;50628;51.008;13.658;2023-08-20T11:10:22;7.57;;;5.85;;
64291;SDS011;50628;51.008;13.658;2023-08-20T11:15:25;7.13;;;5.20;;
64291;SDS011;50628;51.008;13.658;2023-08-20T11:20:29;5.93;;;4.78;;
64291;SDS011;50628;51.008;13.658;2023-08-20T11:25:32;5.72;;;4.25;;
64291;SDS011;50628;51.008;13.658;2023-08-20T11:30:34;6.80;;;4.50;;
64291;SDS011;50628;51.008;13.658;2023-08-20T11:35:38;7.95;;;4.97;;
64291;SDS011;50628;51.008;13.658;2023-08-20T11:40:39;9.70;;;6.20;;
64291;SDS011;50628;51.008;13.658;2023-08-20T11:45:45;4.40;;;3.95;;
64291;SDS011;50628;51.008;13.658;2023-08-20T11:50:49;5.45;;;4.95;;
64291;SDS011;50628;51.008;13.658;2023-08-20T11:55:52;8.40;;;6.53;;
64291;SDS011;50628;51.008;13.658;2023-08-20T12:00:54;6.45;;;4.97;;
64291;SDS011;50628;51.008;13.658;2023-08-20T12:05:58;7.20;;;5.57;;
64291;SDS011;50628;51.008;13.658;2023-08-20T12:11:00;6.53;;;5.43;;
64291;SDS011;50628;51.008;13.658;2023-08-20T12:16:02;5.43;;;4.82;;
64291;SDS011;50628;51.008;13.658;2023-08-20T12:21:06;7.85;;;5.10;;
64291;SDS011;50628;51.008;13.658;2023-08-20T12:26:08;5.82;;;5.07;;
64291;SDS011;50628;51.008;13.658;2023-08-20T12:31:09;9.57;;;7.95;;
64291;SDS011;50628;51.008;13.658;2023-08-20T12:36:13;5.65;;;5.05;;
64291;SDS011;50628;51.008;13.658;2023-08-20T12:41:15;8.98;;;5.20;;
64291;SDS011;50628;51.008;13.658;2023-08-20T12:46:16;8.07;;;4.55;;
64291;SDS011;50628;51.008;13.658;2023-08-20T12:51:20;5.43;;;4.07;;
64291;SDS011;50628;51.008;13.658;2023-08-20T12:56:22;6.00;;;4.80;;
64291;SDS011;50628;51.008;13.658;2023-08-20T13:01:24;5.38;;;4.38;;
64291;SDS011;50628;51.008;13.658;2023-08-20T13:06:28;5.32;;;4.13;;
64291;SDS011;50628;51.008;13.658;2023-08-20T13:11:30;6.13;;;4.78;;
64291;SDS011;50628;51.008;13.658;2023-08-20T13:16:33;13.52;;;10.07;;
64291;SDS011;50628;51.008;13.658;2023-08-20T13:21:36;13.50;;;6.38;;
64291;SDS011;50628;51.008;13.658;2023-08-20T13:26:38;6.07;;;5.57;;
64291;SDS011;50628;51.008;13.658;2023-08-20T13:31:40;6.28;;;4.07;;
64291;SDS011;50628;51.008;13.658;2023-08-20T13:36:43;7.78;;;4.18;;
64291;SDS011;50628;51.008;13.658;2023-08-20T13:41:49;22.58;;;8.18;;
64291;SDS011;50628;51.008;13.658;2023-08-20T13:46:51;5.63;;;4.18;;
64291;SDS011;50628;51.008;13.658;2023-08-20T13:51:55;3.97;;;3.60;;
64291;SDS011;50628;51.008;13.658;2023-08-20T13:56:56;4.80;;;4.22;;
64291;SDS011;50628;51.008;13.658;2023-08-20T14:01:58;6.15;;;4.50;;
64291;SDS011;50628;51.008;13.658;2023-08-20T14:07:01;8.57;;;4.60;;
64291;SDS011;50628;51.008;13.658;2023-08-20T14:12:03;7.15;;;5.47;;
64291;SDS011;50628;51.008;13.658;2023-08-20T14:17:05;8.90;;;7.22;;
64291;SDS011;50628;51.008;13.658;2023-08-20T14:22:10;4.70;;;4.30;;
64291;SDS011;50628;51.008;13.658;2023-08-20T14:27:12;6.47;;;4.75;;
64291;SDS011;50628;51.008;13.658;2023-08-20T14:32:14;8.57;;;4.68;;
64291;SDS011;50628;51.008;13.658;2023-08-20T14:37:17;5.18;;;4.03;;
64291;SDS011;50628;51.008;13.658;2023-08-20T14:42:19;6.32;;;4.70;;
64291;SDS011;50628;51.008;13.658;2023-08-20T14:47:21;8.35;;;4.85;;
64291;SDS011;50628;51.008;13.658;2023-08-20T14:52:24;11.18;;;4.80;;
64291;SDS011;50628;51.008;13.658;2023-08-20T14:57:26;6.47;;;4.35;;
64291;SDS011;50628;51.008;13.658;2023-08-20T15:02:28;10.32;;;4.90;;
64291;SDS011;50628;51.008;13.658;2023-08-20T15:07:31;6.13;;;4.40;;
64291;SDS011;50628;51.008;13.658;2023-08-20T15:12:33;8.73;;;4.55;;
64291;SDS011;50628;51.008;13.658;2023-08-20T15:17:36;7.25;;;5.22;;
64291;SDS011;50628;51.008;13.658;2023-08-20T15:22:40;8.85;;;5.07;;
64291;SDS011;50628;51.008;13.658;2023-08-20T15:27:41;8.45;;;4.70;;
64291;SDS011;50628;51.008;13.658;2023-08-20T15:32:43;5.25;;;4.72;;
64291;SDS011;50628;51.008;13.658;2023-08-20T15:37:46;10.50;;;5.88;;
64291;SDS011;50628;51.008;13.658;2023-08-20T15:42:49;8.05;;;4.60;;
64291;SDS011;50628;51.008;13.658;2023-08-20T15:47:51;6.38;;;4.38;;
64291;SDS011;50628;51.008;13.658;2023-08-20T15:52:54;5.18;;;4.68;;
64291;SDS011;50628;51.008;13.658;2023-08-20T15:57:56;7.80;;;5.75;;
64291;SDS011;50628;51.008;13.658;2023-08-20T16:02:58;6.80;;;6.00;;
64291;SDS011;50628;51.008;13.658;2023-08-20T16:08:02;7.20;;;5.18;;
64291;SDS011;50628;51.008;13.658;2023-08-20T16:13:04;5.22;;;2.92;;
64291;SDS011;50628;51.008;13.658;2023-08-20T16:18:06;5.65;;;2.72;;
64291;SDS011;50628;51.008;13.658;2023-08-20T16:23:10;4.25;;;2.58;;
64291;SDS011;50628;51.008;13.658;2023-08-20T16:28:12;3.40;;;2.47;;
64291;SDS011;50628;51.008;13.658;2023-08-20T16:33:14;3.03;;;2.50;;
64291;SDS011;50628;51.008;13.658;2023-08-20T16:38:17;4.82;;;2.40;;
64291;SDS011;50628;51.008;13.658;2023-08-20T16:43:19;2.70;;;1.98;;
64291;SDS011;50628;51.008;13.658;2023-08-20T16:48:21;4.22;;;1.50;;
64291;SDS011;50628;51.008;13.658;2023-08-20T16:53:24;1.65;;;1.42;;
64291;SDS011;50628;51.008;13.658;2023-08-20T16:58:26;2.20;;;1.83;;
64291;SDS011;50628;51.008;13.658;2023-08-20T17:03:28;3.00;;;1.52;;
64291;SDS011;50628;51.008;13.658;2023-08-20T17:08:31;2.92;;;2.03;;
64291;SDS011;50628;51.008;13.658;2023-08-20T17:13:33;23.30;;;3.60;;
64291;SDS011;50628;51.008;13.658;2023-08-20T17:18:35;11.25;;;3.28;;
64291;SDS011;50628;51.008;13.658;2023-08-20T17:23:38;15.55;;;4.20;;
64291;SDS011;50628;51.008;13.658;2023-08-20T17:28:40;13.48;;;5.50;;
64291;SDS011;50628;51.008;13.658;2023-08-20T17:33:42;14.25;;;4.43;;
64291;SDS011;50628;51.008;13.658;2023-08-20T17:38:45;8.38;;;4.35;;
64291;SDS011;50628;51.008;13.658;2023-08-20T17:43:47;9.10;;;4.05;;
64291;SDS011;50628;51.008;13.658;2023-08-20T17:48:49;9.15;;;4.53;;
64291;SDS011;50628;51.008;13.658;2023-08-20T17:53:52;6.95;;;4.13;;
64291;SDS011;50628;51.008;13.658;2023-08-20T17:58:54;7.15;;;4.60;;
64291;SDS011;50628;51.008;13.658;2023-08-20T18:03:56;10.23;;;4.68;;
64291;SDS011;50628;51.008;13.658;2023-08-20T18:09:00;8.15;;;4.70;;
64291;SDS011;50628;51.008;13.658;2023-08-20T18:14:02;7.57;;;4.93;;
64291;SDS011;50628;51.008;13.658;2023-08-20T18:19:04;9.77;;;4.85;;
64291;SDS011;50628;51.008;13.658;2023-08-20T18:24:07;6.32;;;4.68;;
64291;SDS011;50628;51.008;13.658;2023-08-20T18:29:09;5.60;;;4.43;;
64291;SDS011;50628;51.008;13.658;2023-08-20T18:34:11;8.85;;;5.25;;
64291;SDS011;50628;51.008;13.658;2023-08-20T18:39:14;8.88;;;5.00;;
64291;SDS011;50628;51.008;13.658;2023-08-20T18:44:19;8.48;;;4.88;;
64291;SDS011;50628;51.008;13.658;2023-08-20T18:49:20;6.95;;;5.00;;
64291;SDS011;50628;51.008;13.658;2023-08-20T18:54:24;7.47;;;5.10;;
64291;SDS011;50628;51.008;13.658;2023-08-20T18:59:26;9.45;;;5.10;;
64291;SDS011;50628;51.008;13.658;2023-08-20T19:04:28;6.50;;;4.97;;
64291;SDS011;50628;51.008;13.658;2023-08-20T19:09:31;7.65;;;4.85;;
64291;SDS011;50628;51.008;13.658;2023-08-20T19:14:33;9.98;;;5.38;;
64291;SDS011;50628;51.008;13.658;2023-08-20T19:19:34;8.70;;;4.70;;
64291;SDS011;50628;51.008;13.658;2023-08-20T19:24:38;8.80;;;4.80;;
64291;SDS011;50628;51.008;13.658;2023-08-20T19:29:39;6.75;;;5.20;;
64291;SDS011;50628;51.008;13.658;2023-08-20T19:34:41;8.38;;;5.05;;
64291;SDS011;50628;51.008;13.658;2023-08-20T19:39:45;9.18;;;5.53;;
64291;SDS011;50628;51.008;13.658;2023-08-20T19:44:46;8.73;;;5.55;;
64291;SDS011;50628;51.008;13.658;2023-08-20T19:49:48;7.57;;;4.80;;
64291;SDS011;50628;51.008;13.658;2023-08-20T19:54:51;11.05;;;5.63;;
64291;SDS011;50628;51.008;13.658;2023-08-20T19:59:53;8.55;;;5.82;;
64291;SDS011;50628;51.008;13.658;2023-08-20T20:04:55;7.63;;;4.47;;
64291;SDS011;50628;51.008;13.658;2023-08-20T20:09:58;6.45;;;4.72;;
64291;SDS011;50628;51.008;13.658;2023-08-20T20:15:00;7.63;;;4.82;;
64291;SDS011;50628;51.008;13.658;2023-08-20T20:25:11;5.47;;;4.97;;
64291;SDS011;50628;51.008;13.658;2023-08-20T20:30:13;7.63;;;5.38;;
64291;SDS011;50628;51.008;13.658;2023-08-20T20:35:15;7.38;;;5.03;;
64291;SDS011;50628;51.008;13.658;2023-08-20T20:40:19;6.80;;;5.35;;
64291;SDS011;50628;51.008;13.658;2023-08-20T20:45:20;6.95;;;5.35;;
64291;SDS011;50628;51.008;13.658;2023-08-20T20:50:22;7.00;;;5.22;;
64291;SDS011;50628;51.008;13.658;2023-08-20T20:55:25;8.05;;;5.72;;
64291;SDS011;50628;51.008;13.658;2023-08-20T21:00:27;10.48;;;5.75;;
64291;SDS011;50628;51.008;13.658;2023-08-20T21:05:29;17.42;;;7.63;;
64291;SDS011;50628;51.008;13.658;2023-08-20T21:10:32;11.38;;;6.78;;
64291;SDS011;50628;51.008;13.658;2023-08-20T21:15:34;7.97;;;6.45;;
64291;SDS011;50628;51.008;13.658;2023-08-20T21:20:36;8.52;;;6.57;;
64291;SDS011;50628;51.008;13.658;2023-08-20T21:25:39;11.77;;;6.60;;
64291;SDS011;50628;51.008;13.658;2023-08-20T21:30:42;11.77;;;7.57;;
64291;SDS011;50628;51.008;13.658;2023-08-20T21:35:44;10.38;;;6.95;;
64291;SDS011;50628;51.008;13.658;2023-08-20T21:40:47;7.75;;;6.97;;
64291;SDS011;50628;51.008;13.658;2023-08-20T21:45:49;11.93;;;7.68;;
64291;SDS011;50628;51.008;13.658;2023-08-20T21:50:50;12.18;;;8.02;;
64291;SDS011;50628;51.008;13.658;2023-08-20T21:55:54;11.93;;;7.82;;
64291;SDS011;50628;51.008;13.658;2023-08-20T22:00:57;11.82;;;8.65;;
64291;SDS011;50628;51.008;13.658;2023-08-20T22:06:03;11.65;;;7.90;;
64291;SDS011;50628;51.008;13.658;2023-08-20T22:11:07;10.75;;;8.60;;
64291;SDS011;50628;51.008;13.658;2023-08-20T22:16:09;12.75;;;8.77;;
64291;SDS011;50628;51.008;13.658;2023-08-20T22:21:11;11.18;;;8.30;;
64291;SDS011;50628;51.008;13.658;2023-08-20T22:26:14;9.52;;;8.25;;
64291;SDS011;50628;51.008;13.658;2023-08-20T22:31:16;11.80;;;8.50;;
64291;SDS011;50628;51.008;13.658;2023-08-20T22:36:18;9.60;;;8.40;;
64291;SDS011;50628;51.008;13.658;2023-08-20T22:41:21;9.90;;;8.85;;
64291;SDS011;50628;51.008;13.658;2023-08-20T22:46:23;12.63;;;8.23;;
64291;SDS011;50628;51.008;13.658;2023-08-20T22:51:25;10.55;;;9.07;;
64291;SDS011;50628;51.008;13.658;2023-08-20T22:56:28;9.43;;;7.85;;
64291;SDS011;50628;51.008;13.658;2023-08-20T23:01:30;8.73;;;7.90;;
64291;SDS011;50628;51.008;13.658;2023-08-20T23:06:32;10.30;;;7.85;;
64291;SDS011;50628;51.008;13.658;2023-08-20T23:11:35;10.18;;;8.02;;
64291;SDS011;50628;51.008;13.658;2023-08-20T23:16:37;9.52;;;8.45;;
64291;SDS011;50628;51.008;13.658;2023-08-20T23:21:39;9.18;;;8.38;;
64291;SDS011;50628;51.008;13.658;2023-08-20T23:26:42;11.32;;;8.82;;
64291;SDS011;50628;51.008;13.658;2023-08-20T23:31:44;10.27;;;8.73;;
64291;SDS011;50628;51.008;13.658;2023-08-20T23:36:47;15.38;;;8.30;;
64291;SDS011;50628;51.008;13.658;2023-08-20T23:41:51;9.77;;;8.32;;
64291;SDS011;50628;51.008;13.658;2023-08-20T23:46:52;11.00;;;8.07;;
64291;SDS011;50628;51.008;13.658;2023-08-20T23:51:54;9.20;;;8.30;;
64291;SDS011;50628;51.008;13.658;2023-08-20T23:56:58;10.27;;;8.63;;
